Time;durP1;ratioP1;P1;durP2;ratioP2;P2;SDS_P1;SDS_P2;PMS_P1;PMS_P2;Temp;Humidity;BMP_temperature;BMP_pressure;BME280_temperature;BME280_humidity;BME280_pressure;Samples;Min_cycle;Max_cycle;Signal;HPM_P1;HPM_P2
2023/04/26 00:01:13;;;;;;;;;;;11.40;99.90;;;;;;6082489;23;20390;-63
2023/04/26 00:03:39;;;;;;;;;;;11.30;99.90;;;;;;6079442;23;19995;-62
2023/04/26 00:06:07;;;;;;;;;;;11.30;99.90;;;;;;6084559;23;20490;-63
2023/04/26 00:08:33;;;;;;;;;;;11.30;99.90;;;;;;6083706;23;19912;-62
2023/04/26 00:10:58;;;;;;;;;;;11.40;99.90;;;;;;6084914;23;19913;-62
2023/04/26 00:13:24;;;;;;;;;;;11.40;99.90;;;;;;6085632;23;19909;-62
2023/04/26 00:15:50;;;;;;;;;;;11.40;99.90;;;;;;6083598;23;20010;-62
2023/04/26 00:18:16;;;;;;;;;;;11.30;99.90;;;;;;6084073;23;19943;-63
2023/04/26 00:20:42;;;;;;;;;;;11.20;99.90;;;;;;6081636;23;19909;-62
2023/04/26 00:23:08;;;;;;;;;;;11.20;99.90;;;;;;6079937;23;20284;-63
2023/04/26 00:25:34;;;;;;;;;;;11.10;99.90;;;;;;6084716;23;19976;-63
2023/04/26 00:28:00;;;;;;;;;;;11.00;99.90;;;;;;6080846;23;19909;-63
2023/04/26 00:30:26;;;;;;;;;;;10.90;99.90;;;;;;6084076;23;19944;-63
2023/04/26 00:32:51;;;;;;;;;;;10.90;99.90;;;;;;6080272;23;19909;-64
2023/04/26 00:35:17;;;;;;;;;;;10.90;99.90;;;;;;6084397;23;19909;-63
2023/04/26 00:37:43;;;;;;;;;;;10.90;99.90;;;;;;6084562;23;19936;-64
2023/04/26 00:40:09;;;;;;;;;;;10.80;99.90;;;;;;6083057;23;19916;-63
2023/04/26 00:42:34;;;;;;;;;;;10.80;99.90;;;;;;6084819;23;19921;-64
2023/04/26 00:45:00;;;;;;;;;;;10.70;99.90;;;;;;6081265;23;20437;-63
2023/04/26 00:47:28;;;;;;;;;;;10.70;99.90;;;;;;6081805;23;19927;-63
2023/04/26 00:49:53;;;;;;;;;;;10.60;99.90;;;;;;6081828;23;19909;-63
2023/04/26 00:52:19;;;;;;;;;;;10.60;99.90;;;;;;6076845;23;20357;-64
2023/04/26 00:54:46;;;;;;;;;;;10.60;99.90;;;;;;6083895;23;20378;-64
2023/04/26 00:57:11;;;;;;;;;;;10.60;99.90;;;;;;6083399;23;19912;-64
2023/04/26 00:59:37;;;;;;;;;;;10.60;99.90;;;;;;6080073;23;19909;-63
2023/04/26 01:02:02;;;;;;;;;;;10.60;99.90;;;;;;6082427;23;20328;-64
2023/04/26 01:04:29;;;;;;;;;;;10.60;99.90;;;;;;6082734;23;19917;-64
2023/04/26 01:06:55;;;;;;;;;;;10.50;99.90;;;;;;6082260;23;19917;-64
2023/04/26 01:09:21;;;;;;;;;;;10.50;99.90;;;;;;6079248;23;19951;-64
2023/04/26 01:11:46;;;;;;;;;;;10.50;99.90;;;;;;6081336;23;19952;-65
2023/04/26 01:14:13;;;;;;;;;;;10.50;99.90;;;;;;6081304;23;19913;-65
2023/04/26 01:16:39;;;;;;;;;;;10.50;99.90;;;;;;6082715;23;19909;-65
2023/04/26 01:19:11;;;;;;;;;;;10.40;99.90;;;;;;6083774;23;19909;-66
2023/04/26 01:21:36;;;;;;;;;;;10.50;99.90;;;;;;6077343;23;20311;-65
2023/04/26 01:24:02;;;;;;;;;;;10.50;99.90;;;;;;6080586;23;19921;-65
2023/04/26 01:26:28;;;;;;;;;;;10.50;99.90;;;;;;6082414;23;19924;-65
2023/04/26 01:28:53;;;;;;;;;;;10.40;99.90;;;;;;6083945;23;19916;-62
2023/04/26 01:31:20;;;;;;;;;;;10.30;99.90;;;;;;6080539;23;19909;-62
2023/04/26 01:33:45;;;;;;;;;;;10.30;99.90;;;;;;6081729;23;20332;-62
2023/04/26 01:36:11;;;;;;;;;;;10.20;99.90;;;;;;6084217;23;19909;-61
2023/04/26 01:38:36;;;;;;;;;;;10.20;99.90;;;;;;6081316;23;19909;-62
2023/04/26 01:41:02;;;;;;;;;;;10.20;99.90;;;;;;6080590;23;19927;-62
2023/04/26 01:43:27;;;;;;;;;;;10.20;99.90;;;;;;6081752;23;19921;-62
2023/04/26 01:45:53;;;;;;;;;;;10.10;99.90;;;;;;6083218;23;19936;-65
2023/04/26 01:48:18;;;;;;;;;;;10.00;99.90;;;;;;6081368;23;20000;-67
2023/04/26 01:50:44;;;;;;;;;;;10.00;99.90;;;;;;6083383;23;19909;-65
2023/04/26 01:53:10;;;;;;;;;;;10.00;99.90;;;;;;6076616;23;19965;-65
2023/04/26 01:55:35;;;;;;;;;;;9.80;99.90;;;;;;6083955;23;20247;-65
2023/04/26 01:58:01;;;;;;;;;;;9.80;99.90;;;;;;6083035;23;19920;-65
2023/04/26 02:00:27;;;;;;;;;;;9.80;99.90;;;;;;6087066;23;19930;-64
2023/04/26 02:02:54;;;;;;;;;;;9.80;99.90;;;;;;6085206;23;19905;-65
2023/04/26 02:05:19;;;;;;;;;;;9.80;99.90;;;;;;6084550;23;19951;-65
2023/04/26 02:07:45;;;;;;;;;;;9.80;99.90;;;;;;6084591;23;19940;-65
2023/04/26 02:10:10;;;;;;;;;;;9.80;99.90;;;;;;6084707;23;20288;-65
2023/04/26 02:12:36;;;;;;;;;;;9.80;99.90;;;;;;6084466;23;19909;-65
2023/04/26 02:15:02;;;;;;;;;;;9.70;99.90;;;;;;6086636;23;19967;-65
2023/04/26 02:17:28;;;;;;;;;;;9.80;99.90;;;;;;6083844;23;19909;-65
2023/04/26 02:19:53;;;;;;;;;;;9.80;99.90;;;;;;6086407;23;19941;-65
2023/04/26 02:22:22;;;;;;;;;;;9.80;99.90;;;;;;6077094;23;19941;-65
2023/04/26 02:24:48;;;;;;;;;;;9.70;99.90;;;;;;6084158;23;19909;-65
2023/04/26 02:27:14;;;;;;;;;;;9.70;99.90;;;;;;6086639;23;19992;-65
2023/04/26 02:29:39;;;;;;;;;;;9.80;99.90;;;;;;6087747;23;19963;-65
2023/04/26 02:32:05;;;;;;;;;;;9.80;99.90;;;;;;6084348;23;19909;-65
2023/04/26 02:34:30;;;;;;;;;;;9.70;99.90;;;;;;6085554;23;19916;-65
2023/04/26 02:36:56;;;;;;;;;;;9.80;99.90;;;;;;6087482;23;19910;-65
2023/04/26 02:39:22;;;;;;;;;;;9.70;99.90;;;;;;6083211;23;19917;-65
2023/04/26 02:41:48;;;;;;;;;;;9.60;99.90;;;;;;6086152;23;19917;-65
2023/04/26 02:44:13;;;;;;;;;;;9.60;99.90;;;;;;6086492;23;20287;-65
2023/04/26 02:46:39;;;;;;;;;;;9.50;99.90;;;;;;6084489;23;20315;-62
2023/04/26 02:49:04;;;;;;;;;;;9.50;99.90;;;;;;6085826;23;19999;-62
2023/04/26 02:51:32;;;;;;;;;;;9.50;99.90;;;;;;6084192;23;19909;-62
2023/04/26 02:53:58;;;;;;;;;;;9.50;99.90;;;;;;6081481;23;20334;-62
2023/04/26 02:56:23;;;;;;;;;;;9.50;99.90;;;;;;6084356;23;19909;-62
2023/04/26 02:58:49;;;;;;;;;;;9.40;99.90;;;;;;6083214;23;19924;-62
2023/04/26 03:01:15;;;;;;;;;;;9.40;99.90;;;;;;6085900;23;19932;-62
2023/04/26 03:03:41;;;;;;;;;;;9.40;99.90;;;;;;6084773;23;19909;-62
2023/04/26 03:06:06;;;;;;;;;;;9.30;99.90;;;;;;6087015;23;20422;-62
2023/04/26 03:08:33;;;;;;;;;;;9.30;99.90;;;;;;6085124;23;19913;-62
2023/04/26 03:10:59;;;;;;;;;;;9.30;99.90;;;;;;6084369;23;19909;-62
2023/04/26 03:13:25;;;;;;;;;;;9.30;99.90;;;;;;6082742;23;19910;-62
2023/04/26 03:15:52;;;;;;;;;;;9.30;99.90;;;;;;6085952;23;19909;-62
2023/04/26 03:18:17;;;;;;;;;;;9.30;99.90;;;;;;6085558;23;19912;-62
2023/04/26 03:20:44;;;;;;;;;;;9.30;99.90;;;;;;6086214;23;19905;-62
2023/04/26 03:23:09;;;;;;;;;;;9.30;99.90;;;;;;6079178;23;19910;-62
2023/04/26 03:25:35;;;;;;;;;;;9.30;99.90;;;;;;6084723;23;19927;-65
2023/04/26 03:28:01;;;;;;;;;;;9.30;99.90;;;;;;6086914;23;19978;-65
2023/04/26 03:30:26;;;;;;;;;;;9.30;99.90;;;;;;6086540;23;19910;-65
2023/04/26 03:32:52;;;;;;;;;;;9.20;99.90;;;;;;6084488;23;19941;-65
2023/04/26 03:35:18;;;;;;;;;;;9.20;99.90;;;;;;6085791;23;19912;-65
2023/04/26 03:37:44;;;;;;;;;;;9.10;99.90;;;;;;6083562;23;19972;-66
2023/04/26 03:40:10;;;;;;;;;;;9.10;99.90;;;;;;6085783;23;20012;-65
2023/04/26 03:42:35;;;;;;;;;;;9.10;99.90;;;;;;6083886;23;19921;-66
2023/04/26 03:45:02;;;;;;;;;;;9.20;99.90;;;;;;6085686;23;19917;-65
2023/04/26 03:47:31;;;;;;;;;;;9.20;99.90;;;;;;6084084;23;20251;-65
2023/04/26 03:49:57;;;;;;;;;;;9.20;99.90;;;;;;6081596;23;19909;-66
2023/04/26 03:52:22;;;;;;;;;;;9.20;99.90;;;;;;6080786;23;20247;-65
2023/04/26 03:54:48;;;;;;;;;;;9.10;99.90;;;;;;6081564;23;19910;-65
2023/04/26 03:57:13;;;;;;;;;;;9.10;99.90;;;;;;6084807;23;19905;-66
2023/04/26 03:59:39;;;;;;;;;;;9.10;99.90;;;;;;6087024;23;19906;-66
2023/04/26 04:02:05;;;;;;;;;;;9.00;99.90;;;;;;6083998;23;19993;-65
2023/04/26 04:04:30;;;;;;;;;;;8.90;99.90;;;;;;6084408;23;19933;-65
2023/04/26 04:06:56;;;;;;;;;;;8.80;99.90;;;;;;6082577;23;20355;-65
2023/04/26 04:09:21;;;;;;;;;;;9.00;99.90;;;;;;6085060;23;19960;-64
2023/04/26 04:11:47;;;;;;;;;;;9.00;99.90;;;;;;6084860;23;19909;-64
2023/04/26 04:14:12;;;;;;;;;;;8.90;99.90;;;;;;6081721;23;19992;-67
2023/04/26 04:16:38;;;;;;;;;;;8.90;99.90;;;;;;6085489;23;19913;-67
2023/04/26 04:19:04;;;;;;;;;;;8.80;99.90;;;;;;6085510;23;19909;-67
2023/04/26 04:21:30;;;;;;;;;;;8.90;99.90;;;;;;6084499;23;20287;-64
2023/04/26 04:23:56;;;;;;;;;;;8.90;99.90;;;;;;6079503;23;20011;-64
2023/04/26 04:26:21;;;;;;;;;;;8.80;99.90;;;;;;6084242;23;19937;-64
2023/04/26 04:28:47;;;;;;;;;;;8.70;99.90;;;;;;6086220;23;19909;-62
2023/04/26 04:31:13;;;;;;;;;;;8.80;99.90;;;;;;6086079;23;20312;-61
2023/04/26 04:33:38;;;;;;;;;;;8.80;99.90;;;;;;6079944;23;19909;-61
2023/04/26 04:36:05;;;;;;;;;;;8.80;99.90;;;;;;6078804;23;19909;-61
2023/04/26 04:38:31;;;;;;;;;;;8.90;99.90;;;;;;6073714;23;20402;-61
2023/04/26 04:40:57;;;;;;;;;;;9.00;99.90;;;;;;6081461;23;19944;-61
2023/04/26 04:43:22;;;;;;;;;;;9.10;99.90;;;;;;6073859;23;19929;-64
2023/04/26 04:45:48;;;;;;;;;;;9.20;99.90;;;;;;6084152;23;19913;-64
2023/04/26 04:48:14;;;;;;;;;;;9.20;99.90;;;;;;6086192;23;19964;-61
2023/04/26 04:50:40;;;;;;;;;;;9.20;99.90;;;;;;6081296;23;19912;-63
2023/04/26 04:53:07;;;;;;;;;;;9.30;99.90;;;;;;6079671;23;20640;-64
2023/04/26 04:55:33;;;;;;;;;;;9.50;99.90;;;;;;6082253;23;19909;-66
2023/04/26 04:57:58;;;;;;;;;;;9.70;99.90;;;;;;6080721;23;19905;-62
2023/04/26 05:00:24;;;;;;;;;;;9.70;99.90;;;;;;6084483;23;19917;-62
2023/04/26 05:02:49;;;;;;;;;;;9.80;99.90;;;;;;6082152;23;19945;-62
2023/04/26 05:05:15;;;;;;;;;;;9.90;99.90;;;;;;6081415;23;20215;-62
2023/04/26 05:07:41;;;;;;;;;;;9.90;99.90;;;;;;6080327;23;19909;-62
2023/04/26 05:10:08;;;;;;;;;;;10.00;99.90;;;;;;6080192;23;20324;-61
2023/04/26 05:12:34;;;;;;;;;;;10.20;99.90;;;;;;6076632;23;19909;-62
2023/04/26 05:14:59;;;;;;;;;;;10.30;99.90;;;;;;6078462;23;19916;-64
2023/04/26 05:17:25;;;;;;;;;;;10.30;99.90;;;;;;6081130;23;20332;-64
2023/04/26 05:19:51;;;;;;;;;;;10.40;99.90;;;;;;6081743;23;19935;-63
2023/04/26 05:22:21;;;;;;;;;;;10.50;99.90;;;;;;6082096;23;19931;-64
2023/04/26 05:24:46;;;;;;;;;;;10.40;99.90;;;;;;6076456;23;20516;-64
2023/04/26 06:42:33;;;;;;;;;;;11.10;99.90;;;;;;6084469;23;20241;-61
2023/04/26 06:44:58;;;;;;;;;;;11.30;98.50;;;;;;6135211;23;19913;-61
2023/04/26 06:47:24;;;;;;;;;;;11.10;98.00;;;;;;6133968;23;20216;-61
2023/04/26 06:49:50;;;;;;;;;;;11.10;99.80;;;;;;6141479;23;19908;-61
2023/04/26 06:52:16;;;;;;;;;;;11.10;99.10;;;;;;6141271;23;19913;-62
2023/04/26 06:54:41;;;;;;;;;;;10.90;99.10;;;;;;6142125;23;19990;-61
2023/04/26 06:57:07;;;;;;;;;;;10.80;99.90;;;;;;6142845;23;20376;-61
2023/04/26 06:59:32;;;;;;;;;;;10.90;99.90;;;;;;6140015;23;20219;-66
2023/04/26 07:01:59;;;;;;;;;;;11.10;99.80;;;;;;6137463;23;19913;-66
2023/04/26 07:04:25;;;;;;;;;;;11.30;99.90;;;;;;6141198;23;19936;-66
2023/04/26 07:06:51;;;;;;;;;;;11.50;98.70;;;;;;6142338;23;19947;-65
2023/04/26 07:09:16;;;;;;;;;;;11.60;98.70;;;;;;6139507;23;19905;-66
2023/04/26 07:11:44;;;;;;;;;;;11.60;99.20;;;;;;6142723;23;19916;-66
2023/04/26 07:14:10;;;;;;;;;;;11.70;96.70;;;;;;6142558;23;20675;-66
2023/04/26 07:16:36;;;;;;;;;;;11.50;97.90;;;;;;6140687;23;19909;-66
2023/04/26 07:19:02;;;;;;;;;;;11.40;98.00;;;;;;6142259;23;19916;-62
2023/04/26 07:21:27;;;;;;;;;;;11.50;99.40;;;;;;6141269;23;19904;-62
2023/04/26 07:23:55;;;;;;;;;;;11.50;99.30;;;;;;6140273;23;20605;-62
2023/04/26 07:26:21;;;;;;;;;;;11.50;98.60;;;;;;6136839;23;20218;-62
2023/04/26 07:28:47;;;;;;;;;;;11.50;97.10;;;;;;6142887;23;19911;-62
2023/04/26 07:31:12;;;;;;;;;;;11.30;97.40;;;;;;6139630;23;19932;-62
2023/04/26 07:33:38;;;;;;;;;;;11.20;98.30;;;;;;6139256;23;20324;-62
2023/04/26 07:36:04;;;;;;;;;;;11.10;98.60;;;;;;6140881;23;20193;-62
2023/04/26 07:38:29;;;;;;;;;;;11.10;98.50;;;;;;6140241;23;19912;-62
2023/04/26 07:40:55;;;;;;;;;;;11.20;98.90;;;;;;6112648;23;20104;-62
2023/04/26 07:43:21;;;;;;;;;;;11.30;98.90;;;;;;6112208;23;19976;-62
2023/04/26 07:45:47;;;;;;;;;;;11.30;96.40;;;;;;6106526;23;19924;-62
2023/04/26 07:48:12;;;;;;;;;;;11.20;98.10;;;;;;6112583;23;19909;-62
2023/04/26 07:50:38;;;;;;;;;;;11.30;96.80;;;;;;6109023;23;20297;-62
2023/04/26 07:53:03;;;;;;;;;;;11.30;97.50;;;;;;6113269;23;19913;-62
2023/04/26 07:55:29;;;;;;;;;;;11.30;96.00;;;;;;6110235;23;19909;-62
2023/04/26 07:57:54;;;;;;;;;;;11.20;96.80;;;;;;6110393;23;19948;-62
2023/04/26 08:00:23;;;;;;;;;;;11.10;96.10;;;;;;6108896;23;19967;-62
2023/04/26 08:02:48;;;;;;;;;;;11.00;96.40;;;;;;6111045;23;19944;-61
2023/04/26 08:05:14;;;;;;;;;;;11.00;96.80;;;;;;6113505;23;19976;-62
2023/04/26 08:07:40;;;;;;;;;;;11.20;98.90;;;;;;6113594;23;19909;-62
2023/04/26 08:10:06;;;;;;;;;;;11.50;96.70;;;;;;6110582;23;19932;-61
2023/04/26 08:12:32;;;;;;;;;;;11.70;96.20;;;;;;6106361;23;19912;-62
2023/04/26 08:15:01;;;;;;;;;;;11.80;95.80;;;;;;6114010;23;19913;-62
2023/04/26 08:17:26;;;;;;;;;;;11.90;95.90;;;;;;6112357;23;20335;-62
2023/04/26 08:19:52;;;;;;;;;;;11.80;93.10;;;;;;6111089;23;19912;-62
2023/04/26 08:22:18;;;;;;;;;;;11.60;92.40;;;;;;6111936;23;20057;-62
2023/04/26 08:24:49;;;;;;;;;;;11.50;94.90;;;;;;6110735;23;20028;-62
2023/04/26 08:27:14;;;;;;;;;;;11.70;93.70;;;;;;6111888;23;19917;-62
2023/04/26 08:29:40;;;;;;;;;;;11.80;94.30;;;;;;6105340;23;19909;-61
2023/04/26 08:32:06;;;;;;;;;;;11.80;91.80;;;;;;6109141;23;19909;-61
2023/04/26 08:34:31;;;;;;;;;;;11.70;93.30;;;;;;6111003;23;19916;-61
2023/04/26 08:36:57;;;;;;;;;;;11.80;91.70;;;;;;6111370;23;19963;-61
2023/04/26 08:39:23;;;;;;;;;;;11.80;92.50;;;;;;6111933;23;19915;-62
2023/04/26 08:41:56;;;;;;;;;;;12.00;94.10;;;;;;6112916;23;19912;-61
2023/04/26 08:44:25;;;;;;;;;;;12.00;92.40;;;;;;6111048;23;19920;-61
2023/04/26 08:47:13;;;;;;;;;;;12.00;93.00;;;;;;6108436;23;20165;-62
2023/04/26 08:49:40;;;;;;;;;;;12.00;92.90;;;;;;6091255;23;19933;-62
2023/04/26 08:52:08;;;;;;;;;;;12.00;93.40;;;;;;6111265;23;19909;-62
2023/04/26 08:54:33;;;;;;;;;;;11.80;91.10;;;;;;6112614;23;19909;-61
2023/04/26 08:57:00;;;;;;;;;;;11.70;90.50;;;;;;6112684;23;19916;-61
2023/04/26 08:59:27;;;;;;;;;;;11.70;94.00;;;;;;6112323;23;19987;-62
2023/04/26 09:01:53;;;;;;;;;;;12.00;94.00;;;;;;6106564;23;19909;-62
2023/04/26 09:04:19;;;;;;;;;;;12.20;91.10;;;;;;6113350;23;20713;-62
2023/04/26 09:06:45;;;;;;;;;;;12.40;91.50;;;;;;6110374;23;19956;-62
2023/04/26 09:09:12;;;;;;;;;;;12.50;89.70;;;;;;6111735;23;19988;-62
2023/04/26 09:11:58;;;;;;;;;;;12.70;91.50;;;;;;6084351;23;19920;-67
2023/04/26 09:14:24;;;;;;;;;;;12.80;91.90;;;;;;6112096;23;19909;-66
2023/04/26 09:16:51;;;;;;;;;;;12.90;91.20;;;;;;6109829;23;20567;-67
2023/04/26 09:19:16;;;;;;;;;;;12.90;86.90;;;;;;6108434;23;20242;-66
2023/04/26 09:21:46;;;;;;;;;;;12.80;88.20;;;;;;6112009;23;19908;-66
2023/04/26 09:24:12;;;;;;;;;;;12.80;85.30;;;;;;6112304;23;20084;-66
2023/04/26 09:26:38;;;;;;;;;;;12.70;87.40;;;;;;6109065;23;19913;-66
2023/04/26 09:29:17;;;;;;;;;;;12.50;87.60;;;;;;6111741;23;19932;-66
2023/04/26 09:31:43;;;;;;;;;;;12.50;88.30;;;;;;6110394;23;19916;-66
2023/04/26 09:34:10;;;;;;;;;;;12.40;88.00;;;;;;6112240;23;19911;-66
2023/04/26 09:36:48;;;;;;;;;;;12.50;89.70;;;;;;6111255;23;19905;-67
2023/04/26 09:39:14;;;;;;;;;;;12.50;86.20;;;;;;6109206;23;20068;-67
2023/04/26 09:41:46;;;;;;;;;;;12.50;86.40;;;;;;6108305;23;19996;-67
2023/04/26 09:44:21;;;;;;;;;;;12.50;86.20;;;;;;6113569;23;19921;-67
2023/04/26 09:46:58;;;;;;;;;;;12.40;87.00;;;;;;6101876;23;20433;-66
2023/04/26 09:49:28;;;;;;;;;;;12.40;87.30;;;;;;6105386;23;19920;-61
2023/04/26 09:52:00;;;;;;;;;;;12.40;89.00;;;;;;6107237;23;19940;-62
2023/04/26 09:55:01;;;;;;;;;;;12.20;88.60;;;;;;6107153;23;20378;-61
2023/04/26 09:57:26;;;;;;;;;;;12.20;90.70;;;;;;5962797;24;19911;-62
2023/04/26 09:59:55;;;;;;;;;;;12.20;91.30;;;;;;6080603;23;20111;-62
2023/04/26 10:02:21;;;;;;;;;;;12.20;87.70;;;;;;6106715;23;19909;-61
2023/04/26 10:04:48;;;;;;;;;;;12.10;90.30;;;;;;6110779;23;19976;-61
2023/04/26 10:07:14;;;;;;;;;;;12.20;90.40;;;;;;6113879;23;19917;-61
2023/04/26 10:09:40;;;;;;;;;;;12.10;86.90;;;;;;6112178;23;19909;-66
2023/04/26 10:12:08;;;;;;;;;;;12.10;87.20;;;;;;6107015;23;19925;-66
2023/04/26 10:14:33;;;;;;;;;;;12.20;84.00;;;;;;6111348;23;19979;-66
2023/04/26 10:16:59;;;;;;;;;;;12.20;87.90;;;;;;6112433;23;20330;-67
2023/04/26 10:19:25;;;;;;;;;;;12.30;90.70;;;;;;6111369;23;19992;-66
2023/04/26 10:21:52;;;;;;;;;;;12.50;88.10;;;;;;6112507;23;19908;-66
2023/04/26 10:24:17;;;;;;;;;;;12.60;84.90;;;;;;6111736;23;20746;-67
2023/04/26 10:26:53;;;;;;;;;;;12.40;86.60;;;;;;6113321;23;19972;-61
2023/04/26 10:29:19;;;;;;;;;;;12.30;86.30;;;;;;6114551;23;19916;-62
2023/04/26 10:32:04;;;;;;;;;;;12.30;84.70;;;;;;6110714;23;19940;-62
2023/04/26 10:34:31;;;;;;;;;;;12.20;84.70;;;;;;6110118;23;19909;-61
2023/04/26 10:37:17;;;;;;;;;;;12.20;87.70;;;;;;6111442;23;19992;-61
2023/04/26 10:39:44;;;;;;;;;;;12.30;85.20;;;;;;6112538;23;19927;-61
2023/04/26 10:42:21;;;;;;;;;;;12.40;81.80;;;;;;6112244;23;19958;-62
2023/04/26 10:44:48;;;;;;;;;;;12.40;84.70;;;;;;6113528;23;20237;-61
2023/04/26 10:47:35;;;;;;;;;;;12.30;85.40;;;;;;6112797;23;20035;-62
2023/04/26 10:50:06;;;;;;;;;;;12.30;85.80;;;;;;6112588;23;19916;-62
2023/04/26 10:52:31;;;;;;;;;;;12.40;81.90;;;;;;6108955;23;20285;-61
2023/04/26 10:54:58;;;;;;;;;;;12.40;83.80;;;;;;6109922;23;19940;-61
2023/04/26 10:57:44;;;;;;;;;;;12.40;82.10;;;;;;6085237;23;19909;-61
2023/04/26 11:00:15;;;;;;;;;;;12.40;85.70;;;;;;6088051;23;19912;-62
2023/04/26 11:02:45;;;;;;;;;;;12.80;82.90;;;;;;6113332;23;19920;-61
2023/04/26 11:05:30;;;;;;;;;;;12.90;82.00;;;;;;6105488;23;20037;-62
2023/04/26 11:08:23;;;;;;;;;;;13.20;85.10;;;;;;6095420;23;19920;-61
2023/04/26 11:10:51;;;;;;;;;;;13.20;79.80;;;;;;6094890;23;19992;-61
2023/04/26 11:13:18;;;;;;;;;;;13.00;77.70;;;;;;6106109;23;19916;-61
2023/04/26 11:15:43;;;;;;;;;;;12.70;81.30;;;;;;6110026;23;19951;-61
2023/04/26 11:18:10;;;;;;;;;;;12.60;79.90;;;;;;6082631;23;19940;-61
2023/04/26 11:20:35;;;;;;;;;;;12.50;77.60;;;;;;6112719;23;19916;-61
2023/04/26 11:23:01;;;;;;;;;;;12.50;80.90;;;;;;6113010;23;19909;-66
2023/04/26 11:25:27;;;;;;;;;;;12.70;82.40;;;;;;6110553;23;20373;-62
2023/04/26 11:27:57;;;;;;;;;;;12.90;83.20;;;;;;6102488;23;20138;-62
2023/04/26 11:30:23;;;;;;;;;;;13.00;79.40;;;;;;6111532;23;19987;-62
2023/04/26 11:32:48;;;;;;;;;;;12.90;78.20;;;;;;6110242;23;19983;-63
2023/04/26 11:35:14;;;;;;;;;;;12.70;83.30;;;;;;6111516;23;20019;-62
2023/04/26 11:37:40;;;;;;;;;;;12.50;81.80;;;;;;6086633;23;19909;-62
2023/04/26 11:40:09;;;;;;;;;;;12.40;82.80;;;;;;6104081;23;20335;-63
2023/04/26 11:42:34;;;;;;;;;;;12.30;83.70;;;;;;6075799;23;19909;-63
2023/04/26 11:45:00;;;;;;;;;;;12.30;84.90;;;;;;6074568;23;20678;-62
2023/04/26 11:47:29;;;;;;;;;;;12.30;83.00;;;;;;6077064;23;19996;-62
2023/04/26 11:49:55;;;;;;;;;;;12.30;83.90;;;;;;6068413;23;19952;-62
2023/04/26 11:52:21;;;;;;;;;;;12.40;82.60;;;;;;6069921;23;20232;-62
2023/04/26 11:54:46;;;;;;;;;;;12.40;83.20;;;;;;6075610;23;19909;-62
2023/04/26 11:57:15;;;;;;;;;;;12.60;85.30;;;;;;6084204;23;19912;-62
2023/04/26 11:59:40;;;;;;;;;;;12.90;84.00;;;;;;6079829;23;19915;-62
2023/04/26 12:02:07;;;;;;;;;;;13.20;83.40;;;;;;6080747;23;19905;-63
2023/04/26 12:04:33;;;;;;;;;;;13.50;82.00;;;;;;6079752;23;19996;-66
2023/04/26 12:06:58;;;;;;;;;;;13.80;88.70;;;;;;6082520;23;19952;-67
2023/04/26 12:09:27;;;;;;;;;;;14.10;85.40;;;;;;6083030;23;19916;-67
2023/04/26 12:11:57;;;;;;;;;;;14.20;76.20;;;;;;6080553;23;20706;-66
2023/04/26 12:14:29;;;;;;;;;;;14.00;77.50;;;;;;6065950;23;19920;-67
2023/04/26 12:16:57;;;;;;;;;;;13.80;71.10;;;;;;6071614;23;19913;-66
2023/04/26 12:19:23;;;;;;;;;;;13.50;74.60;;;;;;6080446;23;20327;-66
2023/04/26 12:21:49;;;;;;;;;;;13.20;75.90;;;;;;6081411;23;19914;-66
2023/04/26 12:24:24;;;;;;;;;;;13.00;77.60;;;;;;6082761;23;19905;-66
2023/04/26 12:26:50;;;;;;;;;;;12.80;77.90;;;;;;6079489;23;20003;-66
2023/04/26 12:29:16;;;;;;;;;;;12.60;79.10;;;;;;6077259;23;20426;-66
2023/04/26 12:31:42;;;;;;;;;;;12.50;78.20;;;;;;6077403;23;19986;-66
2023/04/26 12:34:07;;;;;;;;;;;12.40;77.80;;;;;;6081330;23;19913;-66
2023/04/26 12:36:33;;;;;;;;;;;12.40;79.60;;;;;;6079054;23;19913;-66
2023/04/26 12:38:59;;;;;;;;;;;12.50;80.40;;;;;;6073266;23;19916;-66
2023/04/26 12:41:25;;;;;;;;;;;12.50;79.70;;;;;;6081948;23;19909;-62
2023/04/26 12:43:51;;;;;;;;;;;12.70;84.00;;;;;;6102223;23;19927;-62
2023/04/26 12:46:16;;;;;;;;;;;12.90;76.40;;;;;;6104634;23;20003;-63
2023/04/26 12:48:42;;;;;;;;;;;13.00;80.90;;;;;;6108952;23;19987;-62
2023/04/26 12:51:08;;;;;;;;;;;13.00;78.50;;;;;;6101020;23;20788;-62
2023/04/26 12:53:33;;;;;;;;;;;12.90;81.60;;;;;;6103267;23;20322;-62
2023/04/26 12:55:59;;;;;;;;;;;12.90;82.60;;;;;;6110466;23;20333;-62
2023/04/26 12:58:24;;;;;;;;;;;12.70;80.20;;;;;;6112044;23;20643;-62
2023/04/26 13:00:50;;;;;;;;;;;12.50;79.10;;;;;;6109880;23;19909;-62
2023/04/26 13:03:16;;;;;;;;;;;12.40;78.70;;;;;;6081751;23;20235;-62
2023/04/26 13:05:41;;;;;;;;;;;12.30;75.70;;;;;;6102287;23;19920;-62
2023/04/26 13:08:07;;;;;;;;;;;12.30;80.90;;;;;;6107663;23;19913;-62
2023/04/26 13:10:33;;;;;;;;;;;12.40;83.70;;;;;;6109314;23;20585;-62
2023/04/26 13:12:58;;;;;;;;;;;12.50;79.80;;;;;;6108965;23;19984;-62
2023/04/26 13:15:25;;;;;;;;;;;12.60;80.40;;;;;;6108528;23;19916;-62
2023/04/26 13:17:52;;;;;;;;;;;12.70;78.20;;;;;;6107212;23;20381;-62
2023/04/26 13:20:18;;;;;;;;;;;12.60;80.90;;;;;;6107130;23;19916;-62
2023/04/26 13:22:43;;;;;;;;;;;12.60;78.60;;;;;;6111533;23;19988;-62
2023/04/26 13:25:10;;;;;;;;;;;12.50;72.20;;;;;;6107442;23;19915;-62
2023/04/26 13:27:35;;;;;;;;;;;12.30;74.90;;;;;;6108906;23;19920;-62
2023/04/26 13:30:01;;;;;;;;;;;12.30;77.90;;;;;;6082617;23;19909;-62
2023/04/26 13:32:27;;;;;;;;;;;12.30;75.80;;;;;;6111327;23;20111;-62
2023/04/26 13:34:53;;;;;;;;;;;12.30;79.90;;;;;;6103981;23;19959;-62
2023/04/26 13:37:20;;;;;;;;;;;12.30;76.50;;;;;;6111300;23;19936;-62
2023/04/26 13:39:45;;;;;;;;;;;12.40;77.00;;;;;;6111689;23;19909;-66
2023/04/26 13:42:12;;;;;;;;;;;12.50;77.20;;;;;;6111910;23;19952;-65
2023/04/26 13:44:38;;;;;;;;;;;12.60;74.30;;;;;;6110579;23;19920;-66
2023/04/26 13:47:03;;;;;;;;;;;12.60;74.40;;;;;;6104429;23;19913;-65
2023/04/26 13:49:29;;;;;;;;;;;12.60;69.20;;;;;;6110066;23;19905;-66
2023/04/26 13:51:54;;;;;;;;;;;12.60;75.00;;;;;;6111992;23;19905;-66
2023/04/26 13:54:26;;;;;;;;;;;12.60;76.00;;;;;;6105286;23;19912;-65
2023/04/26 13:56:52;;;;;;;;;;;12.60;74.50;;;;;;6112899;23;19916;-66
2023/04/26 13:59:18;;;;;;;;;;;12.50;75.40;;;;;;6114442;23;20732;-63
2023/04/26 14:01:44;;;;;;;;;;;12.50;74.20;;;;;;6111562;23;20429;-62
2023/04/26 14:04:09;;;;;;;;;;;12.50;72.40;;;;;;6105454;23;20339;-62
2023/04/26 14:06:35;;;;;;;;;;;12.40;73.50;;;;;;6110955;23;20510;-62
2023/04/26 14:09:01;;;;;;;;;;;12.30;72.40;;;;;;6112463;23;19919;-62
2023/04/26 14:11:27;;;;;;;;;;;12.20;76.40;;;;;;6114589;23;20365;-63
2023/04/26 14:13:55;;;;;;;;;;;12.30;77.90;;;;;;6111866;23;19909;-62
2023/04/26 14:16:22;;;;;;;;;;;12.30;76.90;;;;;;6110207;23;19916;-62
2023/04/26 14:18:47;;;;;;;;;;;12.30;77.50;;;;;;6109205;23;19936;-66
2023/04/26 14:21:13;;;;;;;;;;;12.40;78.30;;;;;;6106895;23;19913;-66
2023/04/26 14:23:39;;;;;;;;;;;12.30;77.30;;;;;;6108955;23;19916;-67
2023/04/26 14:26:05;;;;;;;;;;;12.20;74.60;;;;;;6103599;23;20005;-66
2023/04/26 14:28:30;;;;;;;;;;;12.20;77.30;;;;;;6113179;23;20223;-67
2023/04/26 14:30:56;;;;;;;;;;;12.20;76.20;;;;;;6108135;23;20250;-66
2023/04/26 14:33:21;;;;;;;;;;;12.20;75.90;;;;;;6111888;23;20441;-67
2023/04/26 14:35:47;;;;;;;;;;;12.30;72.00;;;;;;6105117;23;19908;-63
2023/04/26 14:38:12;;;;;;;;;;;12.30;76.80;;;;;;6113340;23;19909;-63
2023/04/26 14:40:38;;;;;;;;;;;12.30;75.70;;;;;;6111901;23;20227;-61
2023/04/26 14:43:03;;;;;;;;;;;12.40;73.10;;;;;;6112668;23;19991;-62
2023/04/26 14:45:32;;;;;;;;;;;12.40;71.00;;;;;;6109294;23;19920;-62
2023/04/26 14:47:58;;;;;;;;;;;12.50;71.90;;;;;;6112554;23;19909;-62
2023/04/26 14:50:24;;;;;;;;;;;12.70;74.00;;;;;;6107768;23;19916;-62
2023/04/26 14:52:49;;;;;;;;;;;12.90;68.70;;;;;;6109803;23;19909;-62
2023/04/26 14:55:21;;;;;;;;;;;13.10;74.30;;;;;;6111022;23;20008;-62
2023/04/26 14:57:47;;;;;;;;;;;13.30;71.40;;;;;;6109699;23;19991;-62
2023/04/26 15:00:15;;;;;;;;;;;13.50;70.70;;;;;;6112241;23;20517;-62
2023/04/26 15:02:44;;;;;;;;;;;13.60;72.80;;;;;;6105414;23;19936;-62
2023/04/26 15:05:10;;;;;;;;;;;13.60;72.20;;;;;;6109043;23;19905;-62
2023/04/26 15:07:36;;;;;;;;;;;13.40;67.20;;;;;;6084974;23;19928;-62
2023/04/26 15:10:03;;;;;;;;;;;13.20;69.50;;;;;;6111995;23;19912;-62
2023/04/26 15:12:29;;;;;;;;;;;13.00;71.20;;;;;;6108874;23;20315;-61
2023/04/26 15:14:55;;;;;;;;;;;12.80;72.20;;;;;;6100964;23;19924;-65
2023/04/26 15:17:20;;;;;;;;;;;12.60;72.50;;;;;;6082892;23;19956;-64
2023/04/26 15:19:46;;;;;;;;;;;12.60;71.40;;;;;;6103976;23;19915;-64
2023/04/26 15:22:11;;;;;;;;;;;12.50;70.50;;;;;;6109078;23;19939;-65
2023/04/26 15:24:37;;;;;;;;;;;12.40;66.90;;;;;;6110478;23;19905;-65
2023/04/26 15:27:03;;;;;;;;;;;12.30;69.10;;;;;;6106519;23;19917;-65
2023/04/26 15:29:32;;;;;;;;;;;12.10;71.30;;;;;;6103285;23;20518;-65
2023/04/26 15:31:58;;;;;;;;;;;12.20;74.10;;;;;;6103553;23;19909;-65
2023/04/26 15:34:24;;;;;;;;;;;12.30;73.70;;;;;;6106433;23;19909;-65